sensor_id;sensor_type;location;lat;lon;timestamp;pressure;altitude;pressure_sealevel;temperature;humidity
74474;BME280;62922;-6.168;106.796;2023-03-05T00:00:51;101327.75;;;27.93;74.47
74474;BME280;62922;-6.168;106.796;2023-03-05T00:03:17;101336.19;;;27.93;74.18
74474;BME280;62922;-6.168;106.796;2023-03-05T00:05:45;101344.59;;;27.93;73.98
74474;BME280;62922;-6.168;106.796;2023-03-05T00:08:11;101350.75;;;27.95;74.36
74474;BME280;62922;-6.168;106.796;2023-03-05T00:10:37;101352.69;;;27.95;74.05
74474;BME280;62922;-6.168;106.796;2023-03-05T00:13:05;101347.94;;;27.95;74.02
74474;BME280;62922;-6.168;106.796;2023-03-05T00:15:32;101349.09;;;27.94;74.23
74474;BME280;62922;-6.168;106.796;2023-03-05T00:17:58;101348.25;;;27.94;74.41
74474;BME280;62922;-6.168;106.796;2023-03-05T00:20:24;101347.41;;;27.93;74.26
74474;BME280;62922;-6.168;106.796;2023-03-05T00:22:49;101357.81;;;27.93;73.96
74474;BME280;62922;-6.168;106.796;2023-03-05T00:25:15;101360.59;;;27.93;74.38
74474;BME280;62922;-6.168;106.796;2023-03-05T00:27:41;101371.53;;;27.94;73.89
74474;BME280;62922;-6.168;106.796;2023-03-05T00:30:07;101348.69;;;27.77;74.07
74474;BME280;62922;-6.168;106.796;2023-03-05T00:32:33;101377.13;;;27.94;74.11
74474;BME280;62922;-6.168;106.796;2023-03-05T00:35:00;101378.53;;;27.92;74.45
74474;BME280;62922;-6.168;106.796;2023-03-05T00:37:26;101386.66;;;27.93;74.06
74474;BME280;62922;-6.168;106.796;2023-03-05T00:39:52;101400.69;;;27.93;74.42
74474;BME280;62922;-6.168;106.796;2023-03-05T00:42:20;101388.66;;;27.93;74.38
74474;BME280;62922;-6.168;106.796;2023-03-05T00:44:48;101405.50;;;27.93;74.13
74474;BME280;62922;-6.168;106.796;2023-03-05T00:47:13;101403.19;;;27.95;74.03
74474;BME280;62922;-6.168;106.796;2023-03-05T00:49:42;101401.22;;;27.95;74.44
74474;BME280;62922;-6.168;106.796;2023-03-05T00:52:08;101402.38;;;27.94;74.15
74474;BME280;62922;-6.168;106.796;2023-03-05T00:54:34;101401.22;;;27.95;74.22
74474;BME280;62922;-6.168;106.796;2023-03-05T00:57:02;101404.88;;;27.96;74.24
74474;BME280;62922;-6.168;106.796;2023-03-05T00:59:30;101398.44;;;27.95;74.06
74474;BME280;62922;-6.168;106.796;2023-03-05T01:01:55;101398.13;;;27.97;74.42
74474;BME280;62922;-6.168;106.796;2023-03-05T01:04:21;101408.53;;;27.96;74.46
74474;BME280;62922;-6.168;106.796;2023-03-05T01:06:47;101408.53;;;27.96;74.44
74474;BME280;62922;-6.168;106.796;2023-03-05T01:09:13;101418.06;;;27.95;74.10
74474;BME280;62922;-6.168;106.796;2023-03-05T01:11:39;101420.03;;;27.95;74.13
74474;BME280;62922;-6.168;106.796;2023-03-05T01:14:05;101425.34;;;27.96;74.45
74474;BME280;62922;-6.168;106.796;2023-03-05T01:16:31;101428.44;;;27.95;74.20
74474;BME280;62922;-6.168;106.796;2023-03-05T01:18:57;101425.63;;;27.95;74.64
74474;BME280;62922;-6.168;106.796;2023-03-05T01:21:23;101431.25;;;27.95;74.22
74474;BME280;62922;-6.168;106.796;2023-03-05T01:23:48;101428.44;;;27.95;74.60
74474;BME280;62922;-6.168;106.796;2023-03-05T01:26:14;101436.84;;;27.95;74.24
74474;BME280;62922;-6.168;106.796;2023-03-05T01:28:40;101445.25;;;27.95;74.39
74474;BME280;62922;-6.168;106.796;2023-03-05T01:31:07;101443.31;;;27.95;74.56
74474;BME280;62922;-6.168;106.796;2023-03-05T01:33:33;101449.75;;;27.96;74.18
74474;BME280;62922;-6.168;106.796;2023-03-05T01:35:59;101455.38;;;27.96;74.80
74474;BME280;62922;-6.168;106.796;2023-03-05T01:38:25;101443.31;;;27.95;74.44
74474;BME280;62922;-6.168;106.796;2023-03-05T01:40:51;101454.22;;;27.97;74.49
74474;BME280;62922;-6.168;106.796;2023-03-05T01:43:21;101454.22;;;27.97;74.30
74474;BME280;62922;-6.168;106.796;2023-03-05T01:48:34;101455.06;;;27.97;74.75
74474;BME280;62922;-6.168;106.796;2023-03-05T01:51:00;101462.38;;;27.98;74.48
74474;BME280;62922;-6.168;106.796;2023-03-05T01:53:25;101453.94;;;27.98;74.88
74474;BME280;62922;-6.168;106.796;2023-03-05T01:55:54;101466.28;;;27.97;74.91
74474;BME280;62922;-6.168;106.796;2023-03-05T01:58:20;101458.72;;;27.98;74.83
74474;BME280;62922;-6.168;106.796;2023-03-05T02:00:46;101454.22;;;27.97;74.64
74474;BME280;62922;-6.168;106.796;2023-03-05T02:03:12;101456.22;;;27.96;75.03
74474;BME280;62922;-6.168;106.796;2023-03-05T02:05:40;101453.41;;;27.96;75.16
74474;BME280;62922;-6.168;106.796;2023-03-05T02:08:10;101450.31;;;27.98;74.74
74474;BME280;62922;-6.168;106.796;2023-03-05T02:10:38;101458.09;;;28.01;75.17
74474;BME280;62922;-6.168;106.796;2023-03-05T02:13:07;101445.72;;;28.07;76.63
74474;BME280;62922;-6.168;106.796;2023-03-05T02:15:34;101452.94;;;28.13;77.32
74474;BME280;62922;-6.168;106.796;2023-03-05T02:18:00;101449.75;;;28.19;78.56
74474;BME280;62922;-6.168;106.796;2023-03-05T02:20:27;101448.03;;;28.23;78.84
74474;BME280;62922;-6.168;106.796;2023-03-05T02:22:53;101454.50;;;28.24;78.45
74474;BME280;62922;-6.168;106.796;2023-03-05T02:30:31;101445.81;;;28.20;77.66
74474;BME280;62922;-6.168;106.796;2023-03-05T02:32:57;101453.41;;;28.20;77.08
74474;BME280;62922;-6.168;106.796;2023-03-05T02:35:23;101456.22;;;28.20;77.25
74474;BME280;62922;-6.168;106.796;2023-03-05T02:37:49;101453.72;;;28.18;77.01
74474;BME280;62922;-6.168;106.796;2023-03-05T02:40:16;101459.31;;;28.18;77.16
74474;BME280;62922;-6.168;106.796;2023-03-05T02:42:42;101451.72;;;28.19;76.67
74474;BME280;62922;-6.168;106.796;2023-03-05T02:45:08;101449.22;;;28.17;77.18
74474;BME280;62922;-6.168;106.796;2023-03-05T02:47:34;101448.38;;;28.17;76.99
74474;BME280;62922;-6.168;106.796;2023-03-05T02:50:00;101462.41;;;28.17;76.96
74474;BME280;62922;-6.168;106.796;2023-03-05T02:52:28;101451.19;;;28.17;77.03
74474;BME280;62922;-6.168;106.796;2023-03-05T02:54:54;101450.38;;;28.16;77.00
74474;BME280;62922;-6.168;106.796;2023-03-05T02:57:20;101453.16;;;28.16;76.95
74474;BME280;62922;-6.168;106.796;2023-03-05T02:59:46;101445.88;;;28.15;76.71
74474;BME280;62922;-6.168;106.796;2023-03-05T03:02:12;101447.56;;;28.16;76.89
74474;BME280;62922;-6.168;106.796;2023-03-05T03:04:38;101442.25;;;28.15;76.78
74474;BME280;62922;-6.168;106.796;2023-03-05T03:07:04;101452.31;;;28.16;76.78
74474;BME280;62922;-6.168;106.796;2023-03-05T03:09:35;101451.47;;;28.15;77.00
74474;BME280;62922;-6.168;106.796;2023-03-05T03:12:02;101440.25;;;28.15;77.04
74474;BME280;62922;-6.168;106.796;2023-03-05T03:14:38;101446.72;;;28.16;76.88
74474;BME280;62922;-6.168;106.796;2023-03-05T03:17:05;101442.75;;;28.17;76.62
74474;BME280;62922;-6.168;106.796;2023-03-05T03:19:32;101448.38;;;28.17;76.75
74474;BME280;62922;-6.168;106.796;2023-03-05T03:21:58;101446.72;;;28.16;76.98
74474;BME280;62922;-6.168;106.796;2023-03-05T03:24:24;101443.91;;;28.16;76.63
74474;BME280;62922;-6.168;106.796;2023-03-05T03:26:50;101444.75;;;28.16;77.14
74474;BME280;62922;-6.168;106.796;2023-03-05T03:29:15;101441.09;;;28.16;76.79
74474;BME280;62922;-6.168;106.796;2023-03-05T03:31:42;101424.28;;;28.16;76.88
74474;BME280;62922;-6.168;106.796;2023-03-05T03:34:12;101427.91;;;28.16;76.70
74474;BME280;62922;-6.168;106.796;2023-03-05T03:36:39;101417.50;;;28.17;77.00
74474;BME280;62922;-6.168;106.796;2023-03-05T03:39:05;101417.50;;;28.17;77.06
74474;BME280;62922;-6.168;106.796;2023-03-05T03:41:31;101407.97;;;28.18;77.02
74474;BME280;62922;-6.168;106.796;2023-03-05T03:43:57;101417.22;;;28.18;77.08
74474;BME280;62922;-6.168;106.796;2023-03-05T03:46:23;101422.84;;;28.18;77.09
74474;BME280;62922;-6.168;106.796;2023-03-05T03:48:49;101415.25;;;28.19;77.16
74474;BME280;62922;-6.168;106.796;2023-03-05T03:51:17;101408.50;;;28.20;76.57
74474;BME280;62922;-6.168;106.796;2023-03-05T03:53:43;101407.66;;;28.19;77.07
74474;BME280;62922;-6.168;106.796;2023-03-05T03:56:12;101411.31;;;28.20;77.07
74474;BME280;62922;-6.168;106.796;2023-03-05T03:58:38;101415.78;;;28.21;76.98
74474;BME280;62922;-6.168;106.796;2023-03-05T04:01:04;101406.50;;;28.20;76.84
74474;BME280;62922;-6.168;106.796;2023-03-05T04:03:30;101400.09;;;28.20;76.75
74474;BME280;62922;-6.168;106.796;2023-03-05T04:05:55;101407.66;;;28.19;76.95
74474;BME280;62922;-6.168;106.796;2023-03-05T04:08:21;101394.47;;;28.20;76.71
74474;BME280;62922;-6.168;106.796;2023-03-05T04:10:47;101394.78;;;28.18;76.88
74474;BME280;62922;-6.168;106.796;2023-03-05T04:13:13;101400.09;;;28.20;76.78
74474;BME280;62922;-6.168;106.796;2023-03-05T04:15:39;101391.91;;;28.23;77.15
74474;BME280;62922;-6.168;106.796;2023-03-05T04:18:08;101391.28;;;28.26;77.74
74474;BME280;62922;-6.168;106.796;2023-03-05T04:20:34;101387.81;;;28.34;79.36
74474;BME280;62922;-6.168;106.796;2023-03-05T04:23:03;101382.13;;;28.39;79.75
74474;BME280;62922;-6.168;106.796;2023-03-05T04:25:29;101379.56;;;28.43;80.68
74474;BME280;62922;-6.168;106.796;2023-03-05T04:27:55;101368.31;;;28.43;79.97
74474;BME280;62922;-6.168;106.796;2023-03-05T04:30:21;101370.28;;;28.42;80.12
74474;BME280;62922;-6.168;106.796;2023-03-05T04:32:46;101366.97;;;28.40;79.13
74474;BME280;62922;-6.168;106.796;2023-03-05T04:35:12;101361.63;;;28.39;79.27
74474;BME280;62922;-6.168;106.796;2023-03-05T04:37:38;101351.88;;;28.36;78.25
74474;BME280;62922;-6.168;106.796;2023-03-05T04:40:04;101350.19;;;28.35;78.45
74474;BME280;62922;-6.168;106.796;2023-03-05T04:42:30;101342.59;;;28.36;78.57
74474;BME280;62922;-6.168;106.796;2023-03-05T04:44:57;101349.38;;;28.35;78.82
74474;BME280;62922;-6.168;106.796;2023-03-05T04:47:23;101346.84;;;28.33;78.38
74474;BME280;62922;-6.168;106.796;2023-03-05T04:49:49;101348.00;;;28.32;78.75
74474;BME280;62922;-6.168;106.796;2023-03-05T04:52:14;101343.50;;;28.31;78.55
74474;BME280;62922;-6.168;106.796;2023-03-05T04:54:40;101339.56;;;28.32;78.44
74474;BME280;62922;-6.168;106.796;2023-03-05T04:57:06;101336.22;;;28.30;79.00
74474;BME280;62922;-6.168;106.796;2023-03-05T04:59:32;101327.81;;;28.30;78.40
74474;BME280;62922;-6.168;106.796;2023-03-05T05:02:01;101318.25;;;28.31;78.86
74474;BME280;62922;-6.168;106.796;2023-03-05T05:04:26;101317.44;;;28.31;78.80
74474;BME280;62922;-6.168;106.796;2023-03-05T05:06:54;101328.13;;;28.29;78.40
74474;BME280;62922;-6.168;106.796;2023-03-05T05:09:25;101321.66;;;28.28;77.97
74474;BME280;62922;-6.168;106.796;2023-03-05T05:11:51;101316.91;;;28.29;78.26
74474;BME280;62922;-6.168;106.796;2023-03-05T05:14:17;101312.94;;;28.30;78.55
74474;BME280;62922;-6.168;106.796;2023-03-05T05:16:44;101306.50;;;28.29;78.77
74474;BME280;62922;-6.168;106.796;2023-03-05T05:19:10;101291.31;;;28.30;78.51
74474;BME280;62922;-6.168;106.796;2023-03-05T05:21:36;101295.28;;;28.29;78.59
74474;BME280;62922;-6.168;106.796;2023-03-05T05:24:01;101296.09;;;28.30;78.48
74474;BME280;62922;-6.168;106.796;2023-03-05T05:26:27;101301.13;;;28.33;78.73
74474;BME280;62922;-6.168;106.796;2023-03-05T05:28:53;101289.91;;;28.33;78.83
74474;BME280;62922;-6.168;106.796;2023-03-05T05:31:19;101289.91;;;28.33;78.49
74474;BME280;62922;-6.168;106.796;2023-03-05T05:33:46;101278.66;;;28.33;78.58
74474;BME280;62922;-6.168;106.796;2023-03-05T05:36:12;101279.47;;;28.33;79.02
74474;BME280;62922;-6.168;106.796;2023-03-05T05:38:39;101269.09;;;28.34;79.08
74474;BME280;62922;-6.168;106.796;2023-03-05T05:41:06;101271.06;;;28.33;78.78
74474;BME280;62922;-6.168;106.796;2023-03-05T05:43:32;101265.16;;;28.35;79.16
74474;BME280;62922;-6.168;106.796;2023-03-05T05:45:59;101251.13;;;28.35;78.82
74474;BME280;62922;-6.168;106.796;2023-03-05T05:48:27;101232.59;;;28.34;78.93
74474;BME280;62922;-6.168;106.796;2023-03-05T05:50:52;101235.41;;;28.34;79.18
74474;BME280;62922;-6.168;106.796;2023-03-05T05:53:21;101225.88;;;28.35;79.03
74474;BME280;62922;-6.168;106.796;2023-03-05T05:55:49;101223.06;;;28.35;78.91
74474;BME280;62922;-6.168;106.796;2023-03-05T05:58:16;101216.63;;;28.34;79.02
74474;BME280;62922;-6.168;106.796;2023-03-05T06:00:42;101205.38;;;28.34;78.74
74474;BME280;62922;-6.168;106.796;2023-03-05T06:03:08;101200.63;;;28.35;78.75
74474;BME280;62922;-6.168;106.796;2023-03-05T06:05:34;101202.56;;;28.34;79.16
74474;BME280;62922;-6.168;106.796;2023-03-05T06:08:02;101207.34;;;28.34;79.23
74474;BME280;62922;-6.168;106.796;2023-03-05T06:10:28;101206.22;;;28.35;79.08
74474;BME280;62922;-6.168;106.796;2023-03-05T06:12:54;101192.19;;;28.35;79.00
74474;BME280;62922;-6.168;106.796;2023-03-05T06:15:23;101193.00;;;28.35;78.92
74474;BME280;62922;-6.168;106.796;2023-03-05T06:17:48;101188.22;;;28.36;78.94
74474;BME280;62922;-6.168;106.796;2023-03-05T06:20:14;101178.16;;;28.35;78.68
74474;BME280;62922;-6.168;106.796;2023-03-05T06:22:40;101183.78;;;28.35;79.14
74474;BME280;62922;-6.168;106.796;2023-03-05T06:25:06;101183.78;;;28.35;78.77
74474;BME280;62922;-6.168;106.796;2023-03-05T06:27:34;101180.13;;;28.34;79.26
74474;BME280;62922;-6.168;106.796;2023-03-05T06:30:00;101176.47;;;28.34;78.67
74474;BME280;62922;-6.168;106.796;2023-03-05T06:32:26;101169.75;;;28.35;79.01
74474;BME280;62922;-6.168;106.796;2023-03-05T06:34:52;101164.41;;;28.33;78.70
74474;BME280;62922;-6.168;106.796;2023-03-05T06:37:18;101158.78;;;28.33;78.89
74474;BME280;62922;-6.168;106.796;2023-03-05T06:39:44;101154.34;;;28.32;78.68
74474;BME280;62922;-6.168;106.796;2023-03-05T06:42:10;101153.19;;;28.33;78.74
74474;BME280;62922;-6.168;106.796;2023-03-05T06:44:39;101150.38;;;28.33;78.85
74474;BME280;62922;-6.168;106.796;2023-03-05T06:47:08;101141.94;;;28.33;78.59
74474;BME280;62922;-6.168;106.796;2023-03-05T06:49:35;101140.31;;;28.32;78.96
74474;BME280;62922;-6.168;106.796;2023-03-05T06:52:01;101138.34;;;28.33;78.92
74474;BME280;62922;-6.168;106.796;2023-03-05T06:54:27;101139.16;;;28.33;78.57
74474;BME280;62922;-6.168;106.796;2023-03-05T06:56:53;101133.53;;;28.33;78.50
74474;BME280;62922;-6.168;106.796;2023-03-05T06:59:19;101133.53;;;28.33;78.73
74474;BME280;62922;-6.168;106.796;2023-03-05T07:01:46;101140.00;;;28.34;78.73
74474;BME280;62922;-6.168;106.796;2023-03-05T07:04:12;101134.38;;;28.34;78.81
74474;BME280;62922;-6.168;106.796;2023-03-05T07:06:40;101136.06;;;28.35;78.82
74474;BME280;62922;-6.168;106.796;2023-03-05T07:09:09;101124.81;;;28.35;78.35
74474;BME280;62922;-6.168;106.796;2023-03-05T07:11:35;101120.03;;;28.35;78.31
74474;BME280;62922;-6.168;106.796;2023-03-05T07:14:01;101121.41;;;28.38;78.45
74474;BME280;62922;-6.168;106.796;2023-03-05T07:16:29;101118.06;;;28.36;78.44
74474;BME280;62922;-6.168;106.796;2023-03-05T07:18:55;101117.75;;;28.37;78.31
74474;BME280;62922;-6.168;106.796;2023-03-05T07:21:23;101111.28;;;28.37;78.32
74474;BME280;62922;-6.168;106.796;2023-03-05T07:23:51;101114.94;;;28.37;78.40
74474;BME280;62922;-6.168;106.796;2023-03-05T07:26:17;101110.47;;;28.36;78.34
74474;BME280;62922;-6.168;106.796;2023-03-05T07:28:43;101102.59;;;28.38;78.61
74474;BME280;62922;-6.168;106.796;2023-03-05T07:31:13;101105.41;;;28.38;78.45
74474;BME280;62922;-6.168;106.796;2023-03-05T07:33:39;101098.63;;;28.39;78.18
74474;BME280;62922;-6.168;106.796;2023-03-05T07:36:08;101106.22;;;28.39;78.00
74474;BME280;62922;-6.168;106.796;2023-03-05T07:38:34;101099.47;;;28.40;78.42
74474;BME280;62922;-6.168;106.796;2023-03-05T07:41:02;101097.50;;;28.40;78.08
74474;BME280;62922;-6.168;106.796;2023-03-05T07:43:28;101094.69;;;28.40;78.28
74474;BME280;62922;-6.168;106.796;2023-03-05T07:45:54;101094.69;;;28.40;78.27
74474;BME280;62922;-6.168;106.796;2023-03-05T07:48:20;101083.47;;;28.40;78.12
74474;BME280;62922;-6.168;106.796;2023-03-05T07:50:46;101083.97;;;28.42;78.26
74474;BME280;62922;-6.168;106.796;2023-03-05T07:53:12;101083.97;;;28.42;78.20
74474;BME280;62922;-6.168;106.796;2023-03-05T07:55:41;101080.03;;;28.43;78.47
74474;BME280;62922;-6.168;106.796;2023-03-05T07:58:07;101076.06;;;28.44;78.25
74474;BME280;62922;-6.168;106.796;2023-03-05T08:00:33;101071.28;;;28.45;78.43
74474;BME280;62922;-6.168;106.796;2023-03-05T08:02:59;101064.53;;;28.46;78.37
74474;BME280;62922;-6.168;106.796;2023-03-05T08:05:24;101066.72;;;28.49;78.10
74474;BME280;62922;-6.168;106.796;2023-03-05T08:07:50;101061.97;;;28.49;78.05
74474;BME280;62922;-6.168;106.796;2023-03-05T08:10:16;101058.84;;;28.51;77.93
74474;BME280;62922;-6.168;106.796;2023-03-05T08:12:42;101059.38;;;28.53;78.14
74474;BME280;62922;-6.168;106.796;2023-03-05T08:15:08;101054.28;;;28.55;77.82
74474;BME280;62922;-6.168;106.796;2023-03-05T08:17:34;101045.56;;;28.56;77.70
74474;BME280;62922;-6.168;106.796;2023-03-05T08:20:00;101048.88;;;28.58;77.68
74474;BME280;62922;-6.168;106.796;2023-03-05T08:22:32;101041.00;;;28.60;77.90
74474;BME280;62922;-6.168;106.796;2023-03-05T08:24:59;101038.69;;;28.62;77.35
74474;BME280;62922;-6.168;106.796;2023-03-05T08:27:25;101042.00;;;28.64;77.10
74474;BME280;62922;-6.168;106.796;2023-03-05T08:29:51;101032.47;;;28.65;77.31
74474;BME280;62922;-6.168;106.796;2023-03-05T08:32:17;101029.34;;;28.67;77.27
74474;BME280;62922;-6.168;106.796;2023-03-05T08:34:43;101029.84;;;28.69;77.06
74474;BME280;62922;-6.168;106.796;2023-03-05T08:37:09;101026.72;;;28.70;77.11
74474;BME280;62922;-6.168;106.796;2023-03-05T08:39:35;101012.38;;;28.72;76.91
74474;BME280;62922;-6.168;106.796;2023-03-05T08:42:04;101010.06;;;28.74;77.01
74474;BME280;62922;-6.168;106.796;2023-03-05T08:44:30;101004.47;;;28.74;77.01
74474;BME280;62922;-6.168;106.796;2023-03-05T08:46:56;101002.19;;;28.76;76.64
74474;BME280;62922;-6.168;106.796;2023-03-05T08:49:22;101008.31;;;28.78;77.04
74474;BME280;62922;-6.168;106.796;2023-03-05T08:51:50;101003.22;;;28.80;76.78
74474;BME280;62922;-6.168;106.796;2023-03-05T08:54:16;100998.44;;;28.81;77.09
74474;BME280;62922;-6.168;106.796;2023-03-05T08:56:42;100992.50;;;28.82;77.01
74474;BME280;62922;-6.168;106.796;2023-03-05T08:59:08;100984.88;;;28.83;76.81
74474;BME280;62922;-6.168;106.796;2023-03-05T09:01:34;100990.22;;;28.84;76.73
74474;BME280;62922;-6.168;106.796;2023-03-05T09:04:00;100987.09;;;28.86;76.90
74474;BME280;62922;-6.168;106.796;2023-03-05T09:06:26;100995.19;;;28.87;77.27
74474;BME280;62922;-6.168;106.796;2023-03-05T09:08:52;100995.72;;;28.89;76.93
74474;BME280;62922;-6.168;106.796;2023-03-05T09:11:18;101002.69;;;28.92;76.59
74474;BME280;62922;-6.168;106.796;2023-03-05T09:13:44;101007.16;;;28.93;76.29
74474;BME280;62922;-6.168;106.796;2023-03-05T09:16:11;101003.69;;;28.96;75.29
74474;BME280;62922;-6.168;106.796;2023-03-05T09:18:38;101005.06;;;28.98;74.78
74474;BME280;62922;-6.168;106.796;2023-03-05T09:21:06;100995.47;;;28.99;74.69
74474;BME280;62922;-6.168;106.796;2023-03-05T09:23:32;101003.59;;;29.01;75.08
74474;BME280;62922;-6.168;106.796;2023-03-05T09:26:03;101000.78;;;29.01;74.99
74474;BME280;62922;-6.168;106.796;2023-03-05T09:28:29;100992.84;;;29.03;74.23
74474;BME280;62922;-6.168;106.796;2023-03-05T09:30:55;100998.19;;;29.04;74.08
74474;BME280;62922;-6.168;106.796;2023-03-05T09:33:20;101006.28;;;29.06;74.00
74474;BME280;62922;-6.168;106.796;2023-03-05T09:35:49;100995.06;;;29.06;73.93
74474;BME280;62922;-6.168;106.796;2023-03-05T09:38:15;101003.47;;;29.06;73.96
74474;BME280;62922;-6.168;106.796;2023-03-05T09:40:48;100994.22;;;29.05;74.28
74474;BME280;62922;-6.168;106.796;2023-03-05T09:45:46;101004.59;;;29.05;74.08
74474;BME280;62922;-6.168;106.796;2023-03-05T09:48:19;101012.22;;;29.04;74.52
74474;BME280;62922;-6.168;106.796;2023-03-05T09:51:04;101021.47;;;29.05;73.90
74474;BME280;62922;-6.168;106.796;2023-03-05T09:56:09;101019.19;;;29.07;74.00
74474;BME280;62922;-6.168;106.796;2023-03-05T09:58:39;101007.94;;;29.07;74.17
74474;BME280;62922;-6.168;106.796;2023-03-05T10:06:21;101018.56;;;29.10;74.32
74474;BME280;62922;-6.168;106.796;2023-03-05T10:11:22;101025.84;;;29.11;73.95
74474;BME280;62922;-6.168;106.796;2023-03-05T10:13:51;101028.66;;;29.11;74.27
74474;BME280;62922;-6.168;106.796;2023-03-05T10:21:23;101032.63;;;29.10;74.36
74474;BME280;62922;-6.168;106.796;2023-03-05T10:44:38;101082.91;;;29.11;75.23
74474;BME280;62922;-6.168;106.796;2023-03-05T10:47:11;101081.19;;;29.10;75.09
74474;BME280;62922;-6.168;106.796;2023-03-05T10:49:42;101086.81;;;29.10;74.96
74474;BME280;62922;-6.168;106.796;2023-03-05T10:52:13;101087.66;;;29.11;74.90
74474;BME280;62922;-6.168;106.796;2023-03-05T10:54:41;101091.34;;;29.11;74.74
74474;BME280;62922;-6.168;106.796;2023-03-05T10:59:35;101095.00;;;29.12;74.99
74474;BME280;62922;-6.168;106.796;2023-03-05T11:02:03;101106.22;;;29.12;74.66
74474;BME280;62922;-6.168;106.796;2023-03-05T11:04:32;101110.69;;;29.13;74.73
74474;BME280;62922;-6.168;106.796;2023-03-05T11:12:34;101110.69;;;29.13;74.92
74474;BME280;62922;-6.168;106.796;2023-03-05T11:15:05;101119.13;;;29.13;74.97
74474;BME280;62922;-6.168;106.796;2023-03-05T11:25:32;101130.34;;;29.13;75.01
74474;BME280;62922;-6.168;106.796;2023-03-05T11:27:59;101144.72;;;29.11;75.00
74474;BME280;62922;-6.168;106.796;2023-03-05T11:30:27;101144.72;;;29.11;75.00
74474;BME280;62922;-6.168;106.796;2023-03-05T11:35:40;101152.28;;;29.11;75.17
74474;BME280;62922;-6.168;106.796;2023-03-05T11:38:14;101157.06;;;29.10;74.81
74474;BME280;62922;-6.168;106.796;2023-03-05T11:40:42;101161.59;;;29.11;75.08
74474;BME280;62922;-6.168;106.796;2023-03-05T11:43:09;101159.88;;;29.10;74.78
74474;BME280;62922;-6.168;106.796;2023-03-05T11:45:39;101164.69;;;29.10;75.09
74474;BME280;62922;-6.168;106.796;2023-03-05T11:48:09;101152.59;;;29.09;74.94
74474;BME280;62922;-6.168;106.796;2023-03-05T11:50:37;101170.31;;;29.10;75.00
74474;BME280;62922;-6.168;106.796;2023-03-05T11:53:08;101182.34;;;29.10;74.83
74474;BME280;62922;-6.168;106.796;2023-03-05T12:00:32;101182.34;;;29.10;74.94
74474;BME280;62922;-6.168;106.796;2023-03-05T12:02:59;101187.16;;;29.10;74.73
74474;BME280;62922;-6.168;106.796;2023-03-05T12:05:27;101191.09;;;29.09;75.33
74474;BME280;62922;-6.168;106.796;2023-03-05T12:07:55;101184.63;;;29.08;75.00
74474;BME280;62922;-6.168;106.796;2023-03-05T12:10:23;101189.44;;;29.08;74.95
74474;BME280;62922;-6.168;106.796;2023-03-05T12:17:44;101199.53;;;29.09;75.24
74474;BME280;62922;-6.168;106.796;2023-03-05T12:20:13;101200.69;;;29.08;74.93
74474;BME280;62922;-6.168;106.796;2023-03-05T12:22:43;101203.19;;;29.09;74.75
74474;BME280;62922;-6.168;106.796;2023-03-05T12:27:55;101211.09;;;29.07;74.86
74474;BME280;62922;-6.168;106.796;2023-03-05T12:35:52;101231.59;;;29.08;75.03
74474;BME280;62922;-6.168;106.796;2023-03-05T12:38:39;101224.31;;;29.07;74.82
74474;BME280;62922;-6.168;106.796;2023-03-05T12:51:53;101243.97;;;29.07;75.64
74474;BME280;62922;-6.168;106.796;2023-03-05T12:56:46;101239.19;;;29.07;75.80
74474;BME280;62922;-6.168;106.796;2023-03-05T12:59:12;101250.75;;;29.06;75.09
74474;BME280;62922;-6.168;106.796;2023-03-05T13:04:10;101250.22;;;29.04;75.14
74474;BME280;62922;-6.168;106.796;2023-03-05T13:06:39;101258.66;;;29.04;74.99
74474;BME280;62922;-6.168;106.796;2023-03-05T13:11:33;101273.31;;;29.01;74.77
74474;BME280;62922;-6.168;106.796;2023-03-05T13:14:04;101278.09;;;29.00;74.40
74474;BME280;62922;-6.168;106.796;2023-03-05T13:16:49;101289.66;;;28.99;74.00
74474;BME280;62922;-6.168;106.796;2023-03-05T13:19:15;101286.84;;;28.99;74.13
74474;BME280;62922;-6.168;106.796;2023-03-05T13:21:41;101284.03;;;28.99;74.10
74474;BME280;62922;-6.168;106.796;2023-03-05T13:24:18;101292.47;;;28.99;73.97
74474;BME280;62922;-6.168;106.796;2023-03-05T13:26:44;101302.56;;;29.00;73.96
74474;BME280;62922;-6.168;106.796;2023-03-05T13:31:46;101310.97;;;29.00;74.34
74474;BME280;62922;-6.168;106.796;2023-03-05T13:34:14;101319.41;;;29.00;74.26
74474;BME280;62922;-6.168;106.796;2023-03-05T13:36:45;101325.03;;;29.00;74.07
74474;BME280;62922;-6.168;106.796;2023-03-05T13:39:23;101324.50;;;28.98;74.23
74474;BME280;62922;-6.168;106.796;2023-03-05T13:41:56;101329.31;;;28.97;74.36
74474;BME280;62922;-6.168;106.796;2023-03-05T13:44:22;101329.31;;;28.97;74.44
74474;BME280;62922;-6.168;106.796;2023-03-05T13:46:48;101334.09;;;28.97;74.20
74474;BME280;62922;-6.168;106.796;2023-03-05T13:51:50;101346.44;;;28.96;73.84
74474;BME280;62922;-6.168;106.796;2023-03-05T13:54:16;101347.59;;;28.95;73.93
74474;BME280;62922;-6.168;106.796;2023-03-05T13:56:53;101353.22;;;28.95;73.87
74474;BME280;62922;-6.168;106.796;2023-03-05T13:59:24;101358.84;;;28.95;74.01
74474;BME280;62922;-6.168;106.796;2023-03-05T14:01:53;101365.56;;;28.94;73.87
74474;BME280;62922;-6.168;106.796;2023-03-05T14:04:21;101372.88;;;28.95;73.92
74474;BME280;62922;-6.168;106.796;2023-03-05T14:06:58;101370.38;;;28.93;74.23
74474;BME280;62922;-6.168;106.796;2023-03-05T14:09:26;101378.81;;;28.93;74.23
74474;BME280;62922;-6.168;106.796;2023-03-05T14:11:53;101370.69;;;28.92;74.09
74474;BME280;62922;-6.168;106.796;2023-03-05T14:14:20;101375.47;;;28.91;73.67
74474;BME280;62922;-6.168;106.796;2023-03-05T14:16:50;101367.03;;;28.91;73.97